Time;durP1;ratioP1;P1;durP2;ratioP2;P2;SDS_P1;SDS_P2;PMS_P1;PMS_P2;Temp;Humidity;BMP_temperature;BMP_pressure;BME280_temperature;BME280_humidity;BME280_pressure;Samples;Min_cycle;Max_cycle;Signal;HPM_P1;HPM_P2
2022/09/14 00:01:32;;;;;;;11.87;10.77;;;;;;;14.35;100.00;96367.56;5009558;28;20458;-56
2022/09/14 00:04:03;;;;;;;11.47;10.57;;;;;;;14.41;100.00;96369.31;4989596;28;20235;-51
2022/09/14 00:06:32;;;;;;;12.00;11.10;;;;;;;14.42;100.00;96375.47;4963769;28;20215;-57
2022/09/14 00:09:01;;;;;;;12.87;11.77;;;;;;;14.42;100.00;96396.78;5004444;28;20208;-55
2022/09/14 00:11:31;;;;;;;12.87;11.87;;;;;;;14.44;100.00;96408.84;4991990;28;20815;-59
2022/09/14 00:14:01;;;;;;;12.57;11.57;;;;;;;14.50;100.00;96400.97;5004725;28;20232;-58
2022/09/14 00:16:31;;;;;;;12.60;11.60;;;;;;;14.50;100.00;96393.78;5005905;28;20211;-58
2022/09/14 00:19:04;;;;;;;14.47;11.97;;;;;;;14.52;100.00;96391.72;5009098;28;20250;-57
2022/09/14 00:21:34;;;;;;;12.80;11.80;;;;;;;14.61;100.00;96398.31;4939485;28;20227;-56
2022/09/14 00:24:03;;;;;;;12.20;11.00;;;;;;;14.58;100.00;96373.97;5008612;28;20230;-59
2022/09/14 00:26:32;;;;;;;13.37;12.20;;;;;;;14.56;100.00;96362.72;5005595;28;20204;-56
2022/09/14 00:29:03;;;;;;;11.47;10.47;;;;;;;14.50;100.00;96356.47;5007360;28;20635;-58
2022/09/14 00:31:33;;;;;;;12.33;11.23;;;;;;;14.47;100.00;96344.41;5007020;28;20240;-54
2022/09/14 00:34:02;;;;;;;11.50;10.70;;;;;;;14.47;100.00;96347.06;5007724;28;20220;-56
2022/09/14 00:37:11;;;;;;;13.07;11.90;;;;;;;14.48;100.00;96339.91;4941168;28;20242;-54
2022/09/14 00:39:41;;;;;;;12.00;11.10;;;;;;;14.44;100.00;96331.53;5002148;28;20864;-59
2022/09/14 00:42:18;;;;;;;11.47;10.50;;;;;;;14.50;100.00;96331.66;4976293;28;20979;-55
2022/09/14 00:45:08;;;;;;;11.37;10.57;;;;;;;14.50;100.00;96323.66;5006190;28;20208;-56
2022/09/14 00:47:36;;;;;;;13.03;12.03;;;;;;;14.52;100.00;96350.91;5004301;28;20616;-54
2022/09/14 00:50:05;;;;;;;12.23;11.23;;;;;;;14.53;100.00;96356.03;5004060;28;20205;-54
2022/09/14 00:52:35;;;;;;;13.10;12.07;;;;;;;14.43;100.00;96339.78;4948020;28;20715;-56
2022/09/14 00:55:08;;;;;;;12.13;11.23;;;;;;;14.52;100.00;96351.72;5002736;28;20696;-53
2022/09/14 00:57:38;;;;;;;12.73;11.63;;;;;;;14.56;100.00;96349.41;4980677;28;20212;-56
2022/09/14 01:00:09;;;;;;;12.90;12.00;;;;;;;14.57;100.00;96346.53;5005174;28;20250;-56
2022/09/14 01:02:38;;;;;;;12.47;11.47;;;;;;;14.56;100.00;96339.56;5007494;28;20220;-54
2022/09/14 01:05:08;;;;;;;12.27;11.37;;;;;;;14.53;100.00;96332.03;5008787;28;20364;-53
2022/09/14 01:08:13;;;;;;;12.80;11.80;;;;;;;14.54;100.00;96332.81;4951069;28;20220;-57
2022/09/14 01:10:56;;;;;;;12.87;11.77;;;;;;;14.52;100.00;96330.41;4990800;28;20213;-56
2022/09/14 01:13:32;;;;;;;13.40;12.20;;;;;;;14.47;100.00;96325.75;4979268;28;20417;-52
2022/09/14 01:16:07;;;;;;;12.57;11.63;;;;;;;14.52;100.00;96326.91;5013812;28;21153;-54
2022/09/14 01:18:38;;;;;;;11.97;10.97;;;;;;;14.52;100.00;96321.59;5012458;28;20421;-58
2022/09/14 01:21:11;;;;;;;12.20;11.30;;;;;;;14.46;100.00;96334.00;4995908;28;20715;-57
2022/09/14 01:23:46;;;;;;;12.27;11.37;;;;;;;14.42;100.00;96327.50;4996160;28;20532;-59
2022/09/14 01:26:31;;;;;;;12.10;11.20;;;;;;;14.40;100.00;96329.59;5008712;28;20211;-58
2022/09/14 01:29:02;;;;;;;10.97;10.17;;;;;;;14.37;100.00;96325.50;4991063;28;20207;-57
2022/09/14 01:31:34;;;;;;;11.97;11.07;;;;;;;14.33;100.00;96317.16;5009377;28;20838;-58
2022/09/14 01:34:07;;;;;;;10.13;9.33;;;;;;;14.35;100.00;96313.44;5013221;28;21057;-55
2022/09/14 01:36:38;;;;;;;11.03;10.23;;;;;;;14.37;100.00;96317.53;5008741;28;20712;-57
2022/09/14 01:39:06;;;;;;;10.60;9.77;;;;;;;14.38;100.00;96310.31;4958479;28;20224;-57
2022/09/14 01:41:35;;;;;;;10.63;9.63;;;;;;;14.32;100.00;96323.53;5011506;28;20884;-53
2022/09/14 01:44:08;;;;;;;11.03;10.13;;;;;;;14.27;100.00;96322.59;4987679;28;20592;-53
2022/09/14 01:46:40;;;;;;;11.07;10.27;;;;;;;14.29;100.00;96325.84;5011001;28;20293;-58
2022/09/14 01:49:13;;;;;;;11.27;10.40;;;;;;;14.38;100.00;96328.97;5012276;28;20200;-57
2022/09/14 01:51:45;;;;;;;10.73;9.97;;;;;;;14.36;100.00;96333.72;5011281;28;20196;-56
2022/09/14 01:54:18;;;;;;;11.93;10.73;;;;;;;14.28;100.00;96318.91;4958983;28;20215;-57
2022/09/14 01:56:50;;;;;;;12.00;11.00;;;;;;;14.37;100.00;96327.34;5011093;28;20220;-59
2022/09/14 01:59:23;;;;;;;12.77;11.77;;;;;;;14.39;100.00;96327.94;4950084;28;20250;-53
2022/09/14 02:01:56;;;;;;;12.70;11.40;;;;;;;14.39;100.00;96327.94;4985393;28;20877;-55
2022/09/14 02:04:28;;;;;;;13.17;11.80;;;;;;;14.25;100.00;96303.38;5010098;28;20212;-53
2022/09/14 02:06:57;;;;;;;12.53;11.53;;;;;;;14.31;100.00;96321.09;4988665;28;20932;-55
2022/09/14 02:09:26;;;;;;;11.97;10.93;;;;;;;14.40;100.00;96327.72;5011296;28;20207;-56
2022/09/14 02:11:59;;;;;;;12.90;11.90;;;;;;;14.44;100.00;96326.22;5009193;28;20213;-55
2022/09/14 02:14:29;;;;;;;12.50;11.40;;;;;;;14.38;100.00;96319.16;4985789;28;20244;-59
2022/09/14 02:16:58;;;;;;;11.47;10.47;;;;;;;14.27;100.00;96311.94;4998910;28;20219;-58
2022/09/14 02:19:30;;;;;;;10.77;9.97;;;;;;;14.17;100.00;96296.53;5011444;28;20238;-56
2022/09/14 02:21:58;;;;;;;10.07;9.27;;;;;;;14.10;100.00;96295.81;5011711;28;20204;-55
2022/09/14 02:24:27;;;;;;;10.73;9.73;;;;;;;13.94;100.00;96268.00;4986940;28;20220;-55
2022/09/14 02:26:57;;;;;;;10.27;9.37;;;;;;;14.06;100.00;96289.31;5011561;28;20497;-58
2022/09/14 02:29:25;;;;;;;11.33;10.27;;;;;;;14.00;100.00;96269.72;5011662;28;20201;-56
2022/09/14 02:32:01;;;;;;;11.27;10.27;;;;;;;14.11;100.00;96268.13;4957356;28;20556;-53
2022/09/14 02:34:34;;;;;;;12.17;10.93;;;;;;;14.09;100.00;96264.91;5006505;28;20203;-56
2022/09/14 02:37:10;;;;;;;11.70;10.60;;;;;;;14.09;100.00;96255.03;5010524;28;20208;-58
2022/09/14 02:39:45;;;;;;;11.60;10.70;;;;;;;14.13;100.00;96260.72;4985067;28;20453;-58
2022/09/14 02:42:22;;;;;;;11.33;10.43;;;;;;;14.17;100.00;96257.34;5009330;28;20238;-60
2022/09/14 02:45:00;;;;;;;11.93;10.50;;;;;;;14.19;100.00;96247.28;5004514;28;20214;-55
2022/09/14 02:47:35;;;;;;;11.50;10.70;;;;;;;14.21;100.00;96257.72;4957019;28;20208;-56
2022/09/14 02:50:09;;;;;;;12.87;11.67;;;;;;;14.26;100.00;96265.03;5011483;28;20196;-54
2022/09/14 02:52:42;;;;;;;11.67;10.67;;;;;;;14.13;100.00;96240.22;5008330;28;20245;-57
2022/09/14 02:55:13;;;;;;;11.50;10.60;;;;;;;14.32;100.00;96258.78;4980627;28;20696;-56
2022/09/14 02:58:01;;;;;;;11.40;10.30;;;;;;;14.36;100.00;96264.44;4993459;28;20204;-55
2022/09/14 03:00:31;;;;;;;10.57;9.87;;;;;;;14.35;100.00;96250.31;5006424;28;21000;-55
2022/09/14 03:03:00;;;;;;;12.63;9.83;;;;;;;14.35;100.00;96246.84;4961339;28;20228;-52
2022/09/14 03:05:29;;;;;;;10.43;9.63;;;;;;;14.24;100.00;96230.63;5007796;28;20206;-53
2022/09/14 03:07:57;;;;;;;10.53;9.80;;;;;;;14.35;100.00;96242.34;5011261;28;20215;-55
2022/09/14 03:10:25;;;;;;;10.30;9.60;;;;;;;14.24;100.00;96224.50;4984886;28;20401;-56
2022/09/14 03:12:54;;;;;;;11.13;10.23;;;;;;;14.31;100.00;96231.31;4980028;28;20576;-57
2022/09/14 03:15:22;;;;;;;11.77;10.67;;;;;;;14.27;100.00;96216.03;5008165;28;20196;-55
2022/09/14 03:17:51;;;;;;;14.87;13.67;;;;;;;14.24;100.00;96208.50;4961564;28;20222;-57
2022/09/14 03:20:23;;;;;;;13.20;12.30;;;;;;;14.29;100.00;96209.41;5006128;28;20224;-56
2022/09/14 03:22:52;;;;;;;11.23;10.53;;;;;;;14.28;100.00;96193.69;5007904;28;20228;-55
2022/09/14 03:25:21;;;;;;;10.27;9.33;;;;;;;14.26;100.00;96193.91;4985154;28;20216;-57
2022/09/14 03:27:50;;;;;;;11.53;10.53;;;;;;;14.27;100.00;96189.41;5009878;28;20216;-56
2022/09/14 03:30:19;;;;;;;10.53;9.80;;;;;;;14.23;100.00;96180.25;5009217;28;20236;-58
2022/09/14 03:32:48;;;;;;;11.33;10.33;;;;;;;14.32;100.00;96184.19;5009496;28;20393;-59
2022/09/14 03:35:16;;;;;;;10.80;10.03;;;;;;;14.33;100.00;96185.81;4959095;28;20219;-57
2022/09/14 03:37:47;;;;;;;10.47;9.77;;;;;;;14.36;100.00;96188.00;5008093;28;20340;-54
2022/09/14 03:40:17;;;;;;;10.43;9.83;;;;;;;14.21;100.00;96167.16;5002788;28;20254;-57
2022/09/14 03:42:50;;;;;;;10.67;9.87;;;;;;;14.35;100.00;96194.38;5005353;28;20228;-58
2022/09/14 03:45:20;;;;;;;13.33;10.73;;;;;;;14.23;100.00;96169.59;5008174;28;20206;-56
2022/09/14 03:47:48;;;;;;;11.37;10.07;;;;;;;14.41;100.00;96195.31;5010222;28;20283;-56
2022/09/14 03:50:19;;;;;;;10.17;9.47;;;;;;;14.46;100.00;96214.88;4954875;28;20212;-56
2022/09/14 03:52:48;;;;;;;10.77;9.83;;;;;;;14.49;100.00;96237.59;4997655;28;20794;-59
2022/09/14 03:55:18;;;;;;;10.87;9.77;;;;;;;14.26;100.00;96225.88;5001955;28;20580;-59
2022/09/14 03:57:46;;;;;;;11.47;10.47;;;;;;;14.45;100.00;96263.88;5000546;28;20204;-59
2022/09/14 04:00:15;;;;;;;11.63;10.53;;;;;;;14.44;100.00;96262.25;5007510;28;20232;-57
2022/09/14 04:02:43;;;;;;;12.30;11.37;;;;;;;14.46;100.00;96284.16;5008181;28;20418;-57
2022/09/14 04:05:11;;;;;;;13.00;11.80;;;;;;;14.46;100.00;96318.00;4960110;28;20728;-54
2022/09/14 04:07:39;;;;;;;12.10;11.07;;;;;;;14.39;100.00;96306.63;4948090;28;20220;-55
2022/09/14 04:10:10;;;;;;;12.57;11.67;;;;;;;14.39;100.00;96306.63;5006656;28;20633;-55
2022/09/14 04:12:39;;;;;;;13.07;11.87;;;;;;;14.31;100.00;96310.44;4972922;28;20418;-54
2022/09/14 04:15:08;;;;;;;12.43;11.43;;;;;;;14.26;100.00;96268.50;5008006;28;20239;-57
2022/09/14 04:17:36;;;;;;;11.90;10.67;;;;;;;14.30;100.00;96260.88;5005745;28;20402;-59
2022/09/14 04:20:05;;;;;;;12.63;11.63;;;;;;;14.21;100.00;96255.06;5009690;28;20230;-55
2022/09/14 04:22:34;;;;;;;13.40;12.30;;;;;;;14.19;100.00;96271.25;4955702;28;20425;-56
2022/09/14 04:25:02;;;;;;;16.37;15.07;;;;;;;14.29;100.00;96269.91;5009614;28;20744;-54
2022/09/14 04:27:32;;;;;;;15.90;14.67;;;;;;;14.26;100.00;96249.84;4977856;28;20443;-51
2022/09/14 04:30:00;;;;;;;14.63;13.20;;;;;;;14.22;100.00;96231.91;5008443;28;20323;-58
2022/09/14 04:32:29;;;;;;;13.37;12.27;;;;;;;14.13;100.00;96226.91;5006624;28;20235;-58
2022/09/14 04:35:01;;;;;;;12.17;11.17;;;;;;;14.07;100.00;96203.06;4988735;28;20200;-57
2022/09/14 04:37:31;;;;;;;13.00;11.83;;;;;;;14.08;100.00;96202.81;4956735;28;20320;-57
2022/09/14 04:39:59;;;;;;;14.30;13.10;;;;;;;14.06;100.00;96204.91;5010996;28;20546;-58
2022/09/14 04:42:29;;;;;;;16.30;14.80;;;;;;;14.06;100.00;96204.91;5009260;28;20779;-52
2022/09/14 04:44:59;;;;;;;16.07;14.77;;;;;;;14.08;100.00;96218.78;5011895;28;20236;-59
2022/09/14 04:47:29;;;;;;;14.43;13.23;;;;;;;14.18;100.00;96220.91;5008954;28;20299;-55
2022/09/14 04:49:57;;;;;;;14.20;13.07;;;;;;;14.19;100.00;96219.84;4994945;28;20211;-60
2022/09/14 04:52:27;;;;;;;13.20;12.10;;;;;;;14.04;100.00;96196.31;4972706;28;20228;-59
2022/09/14 04:54:55;;;;;;;13.00;12.07;;;;;;;14.16;100.00;96223.78;5010431;28;20211;-61
2022/09/14 04:57:23;;;;;;;12.90;11.80;;;;;;;14.26;100.00;96230.41;5008834;28;20201;-56
2022/09/14 04:59:51;;;;;;;13.43;12.03;;;;;;;14.32;100.00;96258.78;5013307;28;20208;-56
2022/09/14 05:02:21;;;;;;;13.60;12.47;;;;;;;14.30;100.00;96293.63;5006443;28;20319;-54
2022/09/14 05:04:50;;;;;;;13.87;12.57;;;;;;;14.27;100.00;96303.97;5011980;28;20261;-59
2022/09/14 05:07:18;;;;;;;14.17;13.07;;;;;;;14.22;100.00;96254.03;4986902;28;20230;-58
2022/09/14 05:09:47;;;;;;;15.27;13.90;;;;;;;14.14;100.00;96219.72;4995629;28;20729;-57
2022/09/14 05:12:15;;;;;;;14.40;13.30;;;;;;;14.10;100.00;96239.88;5011468;28;20224;-53
2022/09/14 05:14:43;;;;;;;13.83;12.83;;;;;;;14.10;100.00;96223.91;4991601;28;20243;-55
2022/09/14 05:17:11;;;;;;;14.57;13.37;;;;;;;13.88;100.00;96169.34;5008924;28;20300;-56
2022/09/14 05:19:41;;;;;;;13.83;12.50;;;;;;;14.00;100.00;96203.94;5013187;28;20315;-58
2022/09/14 05:22:09;;;;;;;12.40;11.40;;;;;;;14.01;100.00;96234.06;5010805;28;20797;-54
2022/09/14 05:24:38;;;;;;;13.87;12.67;;;;;;;13.92;100.00;96204.28;4960991;28;20231;-55
2022/09/14 05:27:06;;;;;;;14.33;13.20;;;;;;;14.07;100.00;96200.41;5010687;28;20206;-58
2022/09/14 05:29:35;;;;;;;12.60;11.67;;;;;;;14.02;100.00;96198.41;5009746;28;20716;-56
2022/09/14 05:32:03;;;;;;;14.20;13.07;;;;;;;14.08;100.00;96194.03;5012902;28;20315;-57
2022/09/14 05:34:31;;;;;;;12.20;11.30;;;;;;;14.17;100.00;96229.94;5008455;28;20390;-58
2022/09/14 05:37:01;;;;;;;13.07;12.07;;;;;;;14.07;100.00;96249.13;5012082;28;20204;-60
2022/09/14 05:39:29;;;;;;;13.13;12.03;;;;;;;14.10;100.00;96226.56;4963152;28;20967;-54
2022/09/14 05:41:58;;;;;;;13.47;12.37;;;;;;;14.15;100.00;96192.06;5011329;28;20583;-55
2022/09/14 05:44:26;;;;;;;14.30;13.10;;;;;;;14.12;100.00;96188.00;5008651;28;20204;-55
2022/09/14 05:46:54;;;;;;;13.50;12.30;;;;;;;14.17;100.00;96212.06;5010894;28;20284;-57
2022/09/14 05:49:24;;;;;;;12.93;11.83;;;;;;;14.08;100.00;96173.50;5014252;28;20236;-56
2022/09/14 05:51:52;;;;;;;13.57;12.17;;;;;;;14.17;100.00;96190.75;5008642;28;20700;-55
2022/09/14 05:54:22;;;;;;;13.27;12.07;;;;;;;14.17;100.00;96196.09;4979320;28;20236;-58
2022/09/14 05:56:51;;;;;;;13.83;12.63;;;;;;;14.25;100.00;96194.16;5004340;28;20232;-58
2022/09/14 05:59:19;;;;;;;14.37;13.17;;;;;;;14.29;100.00;96185.44;5010348;28;20259;-54
2022/09/14 06:01:48;;;;;;;15.67;14.37;;;;;;;14.26;100.00;96166.47;5013217;28;20307;-57
2022/09/14 06:04:16;;;;;;;15.53;14.10;;;;;;;14.37;100.00;96143.50;5009334;28;20204;-56
2022/09/14 06:06:44;;;;;;;17.60;16.00;;;;;;;14.36;100.00;96137.38;5009857;28;20235;-55
2022/09/14 06:09:34;;;;;;;16.63;15.20;;;;;;;14.35;100.00;96125.09;5005809;28;20245;-59
2022/09/14 06:12:02;;;;;;;16.73;15.13;;;;;;;14.38;100.00;96129.94;4963547;28;20228;-57
2022/09/14 06:14:31;;;;;;;17.10;15.57;;;;;;;14.29;100.00;96107.38;4951331;28;20216;-54
2022/09/14 06:16:59;;;;;;;15.97;14.57;;;;;;;14.44;100.00;96137.00;5008796;28;20711;-58
2022/09/14 06:19:27;;;;;;;16.97;15.67;;;;;;;14.47;100.00;96133.88;5013168;28;20205;-56
2022/09/14 06:21:56;;;;;;;15.77;14.47;;;;;;;14.56;100.00;96125.50;5004647;28;20224;-57
2022/09/14 06:24:24;;;;;;;16.23;14.90;;;;;;;14.64;100.00;96116.34;5011260;28;20208;-56
2022/09/14 06:26:54;;;;;;;16.70;15.30;;;;;;;14.73;100.00;96125.59;5009345;28;20200;-57
2022/09/14 06:29:22;;;;;;;16.20;14.90;;;;;;;14.83;100.00;96125.00;4962047;28;20218;-56
2022/09/14 06:31:50;;;;;;;15.77;14.47;;;;;;;14.86;100.00;96116.53;5006760;28;20748;-54
2022/09/14 06:34:19;;;;;;;16.07;14.83;;;;;;;14.83;100.00;96115.16;5010543;28;20210;-54
2022/09/14 06:36:47;;;;;;;16.93;15.43;;;;;;;14.86;100.00;96117.34;5004093;28;20307;-56
2022/09/14 06:39:16;;;;;;;15.70;14.50;;;;;;;14.87;100.00;96126.16;5013786;28;20223;-56
2022/09/14 06:41:44;;;;;;;14.77;13.57;;;;;;;14.93;100.00;96121.72;5008628;28;20303;-54
2022/09/14 06:44:14;;;;;;;14.40;13.20;;;;;;;14.97;100.00;96121.03;4967085;28;20219;-55
2022/09/14 06:46:43;;;;;;;16.13;14.63;;;;;;;15.02;100.00;96115.78;5006189;28;20321;-52
2022/09/14 06:49:19;;;;;;;14.47;13.27;;;;;;;15.10;100.00;96119.91;5011983;28;20208;-57
2022/09/14 06:51:47;;;;;;;13.03;11.97;;;;;;;15.15;100.00;96108.53;5009448;28;20208;-54
2022/09/14 06:54:17;;;;;;;12.73;11.73;;;;;;;15.20;100.00;96103.28;5010672;28;20533;-57
2022/09/14 06:56:46;;;;;;;12.70;11.70;;;;;;;15.31;100.00;96101.59;5004693;28;20747;-56
2022/09/14 06:59:17;;;;;;;13.30;12.30;;;;;;;15.39;100.00;96100.41;5009498;28;20211;-51
2022/09/14 07:01:48;;;;;;;12.80;11.73;;;;;;;15.38;100.00;96082.78;4956893;28;21418;-57
2022/09/14 07:04:17;;;;;;;12.57;11.53;;;;;;;15.56;100.00;96098.53;5014777;28;20265;-60
2022/09/14 07:06:47;;;;;;;12.53;11.53;;;;;;;15.61;100.00;96092.50;5004963;28;20200;-58
2022/09/14 07:09:16;;;;;;;11.77;10.87;;;;;;;15.75;100.00;96103.66;5010721;28;20301;-54
2022/09/14 07:11:45;;;;;;;13.30;12.20;;;;;;;15.72;100.00;96118.28;5007738;28;20288;-56
2022/09/14 07:14:13;;;;;;;11.47;10.47;;;;;;;15.69;100.00;96104.59;5009581;28;20222;-53
2022/09/14 07:16:43;;;;;;;10.40;9.70;;;;;;;15.69;100.00;96112.63;4954899;28;20213;-57
2022/09/14 07:19:13;;;;;;;11.03;10.23;;;;;;;15.63;100.00;96112.53;5013119;28;20211;-56
2022/09/14 07:21:41;;;;;;;12.37;11.30;;;;;;;15.68;100.00;96102.97;5009052;28;20584;-58
2022/09/14 07:24:11;;;;;;;11.53;10.63;;;;;;;15.69;100.00;96100.09;5008615;28;20673;-56
2022/09/14 07:26:41;;;;;;;11.87;10.97;;;;;;;15.77;100.00;96101.53;5007273;28;20300;-56
2022/09/14 07:29:12;;;;;;;12.13;10.93;;;;;;;15.88;100.00;96110.53;5010275;28;20210;-54
2022/09/14 07:31:43;;;;;;;11.70;10.80;;;;;;;15.82;100.00;96124.84;4960740;28;20232;-55
2022/09/14 07:34:12;;;;;;;10.93;10.13;;;;;;;15.82;100.00;96116.81;5007918;28;20751;-58
2022/09/14 07:36:43;;;;;;;11.57;10.70;;;;;;;15.74;100.00;96126.06;5013422;28;20608;-57
2022/09/14 07:39:13;;;;;;;11.60;10.70;;;;;;;15.61;100.00;96111.97;5008935;28;20750;-56
2022/09/14 07:41:42;;;;;;;11.60;10.80;;;;;;;15.64;100.00;96108.03;5009500;28;20226;-56
2022/09/14 07:44:13;;;;;;;12.93;11.77;;;;;;;15.48;100.00;96077.59;5007730;28;20208;-54
2022/09/14 07:46:44;;;;;;;12.37;11.37;;;;;;;15.46;100.00;96082.38;4959643;28;20234;-56
2022/09/14 07:49:13;;;;;;;11.60;10.70;;;;;;;15.54;100.00;96095.31;5007790;28;20279;-56
2022/09/14 07:51:41;;;;;;;11.83;10.87;;;;;;;15.62;100.00;96094.09;5008422;28;20549;-54
2022/09/14 07:54:12;;;;;;;11.87;10.87;;;;;;;15.74;100.00;96107.38;5009554;28;20239;-52
2022/09/14 07:56:42;;;;;;;11.50;10.60;;;;;;;15.73;100.00;96103.88;5011510;28;20297;-55
2022/09/14 07:59:11;;;;;;;11.73;10.83;;;;;;;15.84;100.00;96112.03;5008806;28;20293;-52
2022/09/14 08:02:01;;;;;;;10.37;9.60;;;;;;;16.18;100.00;96112.84;4962087;28;20452;-57
2022/09/14 08:04:29;;;;;;;10.63;9.83;;;;;;;16.48;100.00;96108.97;5008610;28;20208;-57
2022/09/14 08:06:58;;;;;;;10.97;10.07;;;;;;;16.78;100.00;96099.69;5006144;28;20311;-59
2022/09/14 08:09:26;;;;;;;10.70;10.00;;;;;;;16.91;100.00;96106.50;5011213;28;20204;-57
2022/09/14 08:11:54;;;;;;;10.87;10.07;;;;;;;17.01;100.00;96099.69;5004258;28;20786;-54
2022/09/14 08:14:23;;;;;;;10.73;9.93;;;;;;;17.15;100.00;96110.78;5009457;28;20204;-54
2022/09/14 08:16:51;;;;;;;10.40;9.50;;;;;;;17.13;100.00;96112.91;4957161;28;22309;-58
2022/09/14 08:19:21;;;;;;;10.00;9.30;;;;;;;17.00;100.00;96117.63;5007023;28;20204;-57
2022/09/14 08:21:50;;;;;;;9.90;9.20;;;;;;;17.01;100.00;96111.19;4946541;28;20216;-58
2022/09/14 08:24:19;;;;;;;10.53;9.63;;;;;;;16.92;100.00;96101.97;4987095;28;20216;-54
2022/09/14 08:26:48;;;;;;;9.93;9.23;;;;;;;16.98;100.00;96114.38;4994960;28;20220;-60
2022/09/14 08:29:18;;;;;;;10.57;9.77;;;;;;;16.99;100.00;96115.19;4990203;28;20813;-55
2022/09/14 08:31:50;;;;;;;10.60;9.80;;;;;;;17.00;100.00;96108.75;5007490;28;20234;-56
2022/09/14 08:34:19;;;;;;;10.30;9.50;;;;;;;16.72;100.00;96089.19;5005557;28;20313;-56
2022/09/14 08:36:49;;;;;;;10.87;10.13;;;;;;;16.84;100.00;96116.59;4963697;28;20227;-56
2022/09/14 08:39:18;;;;;;;9.37;8.60;;;;;;;16.82;100.00;96109.88;5004475;28;20698;-57
2022/09/14 08:41:52;;;;;;;9.87;9.07;;;;;;;16.85;100.00;96118.22;5011351;28;20203;-57
2022/09/14 08:44:26;;;;;;;10.70;9.80;;;;;;;17.02;100.00;96126.19;4973868;28;20308;-57
2022/09/14 08:46:59;;;;;;;11.90;10.93;;;;;;;16.88;100.00;96124.94;5009087;28;20212;-57
2022/09/14 08:49:50;;;;;;;11.60;10.60;;;;;;;16.66;100.00;96120.41;5008935;28;20400;-58
2022/09/14 08:52:25;;;;;;;11.57;10.53;;;;;;;16.64;100.00;96117.97;4954292;28;20232;-59
2022/09/14 08:54:56;;;;;;;12.97;11.97;;;;;;;16.81;100.00;96101.06;5007680;28;20200;-55
2022/09/14 08:57:33;;;;;;;12.40;11.27;;;;;;;17.03;100.00;96089.53;5007203;28;20450;-58
2022/09/14 09:00:08;;;;;;;13.20;11.90;;;;;;;17.32;100.00;96078.56;4992352;28;20293;-56
2022/09/14 09:02:48;;;;;;;12.47;11.63;;;;;;;17.72;100.00;96071.13;5006749;28;20318;-54
2022/09/14 09:05:26;;;;;;;10.73;9.90;;;;;;;17.90;100.00;96084.09;5004396;28;20370;-60
2022/09/14 09:08:01;;;;;;;12.03;11.13;;;;;;;18.05;100.00;96091.47;4961201;28;20265;-54
2022/09/14 09:10:30;;;;;;;11.83;10.87;;;;;;;18.30;100.00;96087.31;5005427;28;20448;-54
2022/09/14 09:13:00;;;;;;;12.43;11.43;;;;;;;18.33;100.00;96064.53;5012822;28;20221;-56
2022/09/14 09:15:31;;;;;;;10.90;9.90;;;;;;;18.64;100.00;96086.94;4979555;28;21063;-55
2022/09/14 09:18:01;;;;;;;12.43;11.33;;;;;;;18.54;100.00;96069.97;5003737;28;20493;-58
2022/09/14 09:20:33;;;;;;;11.53;10.40;;;;;;;18.50;100.00;96088.47;5007876;28;20763;-58
2022/09/14 09:23:07;;;;;;;11.30;10.50;;;;;;;18.14;100.00;96070.34;4964975;28;20738;-56
2022/09/14 09:25:46;;;;;;;12.23;11.23;;;;;;;17.81;100.00;96071.47;5009008;28;20200;-58
2022/09/14 09:28:15;;;;;;;11.67;10.80;;;;;;;17.96;100.00;96094.84;5010063;28;20214;-55
2022/09/14 09:30:44;;;;;;;11.93;11.00;;;;;;;17.84;100.00;96071.72;4983014;28;20608;-59
2022/09/14 09:33:17;;;;;;;12.43;11.43;;;;;;;18.21;100.00;96095.03;5011234;28;20303;-58
2022/09/14 09:35:45;;;;;;;13.27;12.17;;;;;;;18.53;100.00;96104.03;5014226;28;20748;-60
2022/09/14 09:38:17;;;;;;;11.87;10.93;;;;;;;18.72;100.00;96122.38;4963670;28;20981;-52
2022/09/14 09:40:48;;;;;;;12.90;11.90;;;;;;;18.69;100.00;96128.25;5012038;28;20404;-59
2022/09/14 09:43:18;;;;;;;12.20;11.00;;;;;;;18.87;100.00;96126.97;5008217;28;20446;-57
2022/09/14 09:46:07;;;;;;;12.43;11.43;;;;;;;18.52;100.00;96130.06;4982964;28;20290;-56
2022/09/14 09:48:41;;;;;;;11.73;10.93;;;;;;;18.75;100.00;96124.53;5012070;28;20207;-58
2022/09/14 09:51:11;;;;;;;12.67;11.70;;;;;;;18.70;100.00;96105.72;5009133;28;20449;-55
2022/09/14 09:53:48;;;;;;;12.17;11.17;;;;;;;18.55;100.00;96101.88;4960203;28;20309;-58
2022/09/14 09:56:19;;;;;;;11.33;10.57;;;;;;;18.39;100.00;96105.59;5007093;28;20204;-58
2022/09/14 09:58:50;;;;;;;12.30;11.33;;;;;;;18.28;100.00;96123.47;5010671;28;20196;-57
2022/09/14 10:01:21;;;;;;;12.90;12.00;;;;;;;18.23;100.00;96122.38;4994039;28;20424;-52
2022/09/14 10:04:06;;;;;;;11.87;11.07;;;;;;;18.33;100.00;96105.56;4996797;28;20231;-58
2022/09/14 10:06:42;;;;;;;12.47;11.67;;;;;;;18.66;100.00;96129.56;5010483;28;20570;-54
2022/09/14 10:09:17;;;;;;;12.37;11.57;;;;;;;18.70;100.00;96125.28;4966034;28;20200;-56
2022/09/14 10:11:46;;;;;;;12.80;11.80;;;;;;;18.61;100.00;96116.16;5010472;28;20203;-57
2022/09/14 10:14:24;;;;;;;12.93;11.93;;;;;;;18.59;100.00;96121.78;5006099;28;20424;-56
2022/09/14 10:16:52;;;;;;;12.13;11.33;;;;;;;18.68;100.00;96121.28;5000345;28;20216;-58
2022/09/14 10:19:23;;;;;;;12.63;11.63;;;;;;;18.83;100.00;96115.97;4989530;28;20530;-55
2022/09/14 10:22:14;;;;;;;13.00;12.00;;;;;;;19.21;100.00;96108.56;5012645;28;20297;-55
2022/09/14 10:24:55;;;;;;;13.13;12.13;;;;;;;19.56;100.00;96111.56;4960135;28;20657;-53
2022/09/14 10:27:38;;;;;;;13.20;12.10;;;;;;;19.83;100.00;96086.28;4994442;28;20582;-56
2022/09/14 10:30:13;;;;;;;12.40;11.43;;;;;;;20.50;100.00;96112.28;5008279;28;20575;-58
2022/09/14 10:32:44;;;;;;;10.27;9.57;;;;;;;20.82;100.00;96106.53;5007515;28;20245;-55
2022/09/14 10:35:14;;;;;;;10.40;9.60;;;;;;;20.80;100.00;96094.41;5009256;28;20497;-53
2022/09/14 10:37:52;;;;;;;11.63;10.77;;;;;;;20.95;100.00;96093.53;5008075;28;20208;-58
2022/09/14 10:40:26;;;;;;;10.50;9.80;;;;;;;20.85;100.00;96082.81;5011423;28;20200;-55
2022/09/14 10:43:04;;;;;;;10.97;10.17;;;;;;;20.92;100.00;96083.31;4964998;28;21683;-57
2022/09/14 10:45:36;;;;;;;11.00;10.10;;;;;;;21.03;100.00;96084.91;5004948;28;20637;-57
2022/09/14 10:48:20;;;;;;;10.93;10.07;;;;;;;20.89;100.00;96054.25;5009649;28;20695;-56
2022/09/14 10:50:56;;;;;;;11.10;10.03;;;;;;;21.09;100.00;96066.78;5009861;28;20315;-56
2022/09/14 10:53:36;;;;;;;11.27;10.27;;;;;;;21.13;100.00;96072.44;5010531;28;20789;-55
2022/09/14 10:56:09;;;;;;;10.40;9.60;;;;;;;20.82;100.00;96065.31;5011947;28;20294;-54
2022/09/14 10:58:49;;;;;;;10.73;9.93;;;;;;;20.64;100.00;96042.50;4956777;28;20414;-55
2022/09/14 11:01:28;;;;;;;10.77;9.87;;;;;;;20.53;100.00;96061.41;5009581;28;20291;-58
2022/09/14 11:04:05;;;;;;;11.23;10.40;;;;;;;20.44;100.00;96060.38;5005849;28;20488;-58
2022/09/14 11:06:48;;;;;;;10.73;10.03;;;;;;;20.35;100.00;96072.78;5010260;28;20282;-57
2022/09/14 11:09:21;;;;;;;10.80;9.90;;;;;;;20.46;100.00;96063.59;5012265;28;20216;-56
2022/09/14 11:11:57;;;;;;;11.40;10.60;;;;;;;20.70;100.00;96054.88;5007701;28;20408;-61
2022/09/14 11:14:34;;;;;;;10.30;9.40;;;;;;;21.24;100.00;96047.84;4960406;28;21718;-56
2022/09/14 11:17:22;;;;;;;9.53;8.73;;;;;;;21.66;100.00;96048.34;5006765;28;20295;-58
2022/09/14 11:19:57;;;;;;;8.10;7.50;;;;;;;21.90;100.00;96047.59;5008276;28;20769;-60
2022/09/14 11:22:34;;;;;;;9.27;8.37;;;;;;;21.72;100.00;96051.00;5007085;28;20223;-57
2022/09/14 11:25:06;;;;;;;7.23;6.53;;;;;;;21.59;100.00;96028.97;5012793;28;20246;-56
2022/09/14 11:27:40;;;;;;;6.50;6.00;;;;;;;21.85;100.00;96050.34;5009578;28;20312;-57
2022/09/14 11:30:14;;;;;;;6.00;5.60;;;;;;;22.48;100.00;96031.59;4961220;28;20732;-57
2022/09/14 11:32:47;;;;;;;6.00;5.60;;;;;;;22.87;100.00;96029.72;5004305;28;20226;-59